Time;durP1;ratioP1;P1;durP2;ratioP2;P2;SDS_P1;SDS_P2;PMS_P1;PMS_P2;Temp;Humidity;BMP_temperature;BMP_pressure;BME280_temperature;BME280_humidity;BME280_pressure;Samples;Min_cycle;Max_cycle;Signal;HPM_P1;HPM_P2
2023/06/07 00:00:59;;;;;;;35.45;23.67;;;14.50;85.80;;;;;;5031397;28;20028;-78
2023/06/07 00:03:26;;;;;;;34.75;24.00;;;14.50;85.90;;;;;;5044361;28;20477;-78
2023/06/07 00:05:52;;;;;;;35.92;23.48;;;14.40;86.00;;;;;;5036317;28;20121;-78
2023/06/07 00:08:18;;;;;;;37.38;25.42;;;14.40;86.00;;;;;;5030365;28;20136;-77
2023/06/07 00:10:43;;;;;;;39.42;25.20;;;14.40;86.10;;;;;;5037222;28;20033;-78
2023/06/07 00:13:09;;;;;;;34.05;23.58;;;14.30;86.20;;;;;;5043260;28;20413;-77
2023/06/07 00:15:35;;;;;;;37.05;25.00;;;14.40;86.30;;;;;;5035064;28;20032;-78
2023/06/07 00:18:02;;;;;;;38.53;23.98;;;14.40;86.00;;;;;;5039620;28;20627;-77
2023/06/07 00:20:28;;;;;;;36.05;24.52;;;14.40;86.10;;;;;;5040790;28;20043;-79
2023/06/07 00:22:55;;;;;;;34.65;23.50;;;14.40;86.00;;;;;;5042884;28;20028;-77
2023/06/07 00:25:22;;;;;;;34.50;23.35;;;14.30;86.00;;;;;;5041491;28;20045;-78
2023/06/07 00:27:47;;;;;;;36.10;23.73;;;14.40;86.00;;;;;;5042462;28;20029;-78
2023/06/07 00:30:14;;;;;;;35.88;24.98;;;14.30;86.10;;;;;;5039008;28;20480;-78
2023/06/07 00:32:39;;;;;;;35.15;24.70;;;14.30;86.20;;;;;;5041874;28;20433;-79
2023/06/07 00:35:07;;;;;;;37.22;25.58;;;14.20;86.30;;;;;;5040600;28;20036;-77
2023/06/07 00:37:33;;;;;;;38.72;24.20;;;14.30;86.30;;;;;;5043533;28;20072;-77
2023/06/07 00:39:58;;;;;;;38.00;26.38;;;14.20;86.30;;;;;;5036104;28;20021;-77
2023/06/07 00:42:24;;;;;;;37.95;24.85;;;14.20;86.50;;;;;;5038113;28;20040;-76
2023/06/07 00:44:50;;;;;;;34.70;24.25;;;14.20;86.40;;;;;;5034692;28;20035;-76
2023/06/07 00:47:17;;;;;;;36.45;24.33;;;14.10;86.60;;;;;;5036746;28;20052;-77
2023/06/07 00:49:44;;;;;;;36.70;25.27;;;14.20;86.60;;;;;;5037822;28;20052;-77
2023/06/07 00:52:10;;;;;;;36.38;25.48;;;14.10;86.50;;;;;;5039846;28;20505;-76
2023/06/07 00:54:36;;;;;;;39.05;25.80;;;14.10;86.60;;;;;;5034800;28;20044;-76
2023/06/07 00:57:02;;;;;;;35.00;25.20;;;14.20;86.70;;;;;;5030012;28;20041;-75
2023/06/07 00:59:29;;;;;;;40.13;26.00;;;14.20;86.50;;;;;;5032325;28;20131;-76
2023/06/07 01:01:55;;;;;;;40.42;25.02;;;14.20;86.60;;;;;;5028062;28;20033;-76
2023/06/07 01:04:24;;;;;;;36.28;25.42;;;14.10;86.70;;;;;;5038772;28;20048;-76
2023/06/07 01:06:52;;;;;;;37.90;25.65;;;14.10;86.70;;;;;;5025142;28;20123;-77
2023/06/07 01:09:19;;;;;;;40.03;27.00;;;14.10;86.90;;;;;;5028013;28;20462;-75
2023/06/07 01:11:49;;;;;;;31.83;23.85;;;14.10;86.80;;;;;;5034327;28;20472;-77
2023/06/07 01:14:15;;;;;;;38.08;26.20;;;14.00;86.90;;;;;;5035525;28;20061;-77
2023/06/07 01:16:44;;;;;;;37.95;25.70;;;14.10;86.90;;;;;;5033321;28;20532;-76
2023/06/07 01:19:23;;;;;;;38.85;26.25;;;14.10;86.90;;;;;;5039912;28;21374;-77
2023/06/07 01:21:57;;;;;;;37.15;25.35;;;14.00;86.90;;;;;;5041920;28;20486;-76
2023/06/07 01:24:23;;;;;;;38.22;25.00;;;14.00;86.90;;;;;;5039306;28;20639;-76
2023/06/07 01:26:53;;;;;;;36.55;26.15;;;14.00;86.90;;;;;;5041141;28;20074;-75
2023/06/07 01:29:19;;;;;;;36.50;26.15;;;13.90;87.10;;;;;;5037402;28;20406;-75
2023/06/07 01:31:48;;;;;;;41.13;26.55;;;14.00;87.00;;;;;;5031324;28;20154;-75
2023/06/07 01:34:14;;;;;;;42.45;27.17;;;13.90;87.00;;;;;;5042045;28;20056;-75
2023/06/07 01:36:40;;;;;;;38.08;26.30;;;13.90;87.10;;;;;;5037207;28;20484;-76
2023/06/07 01:39:07;;;;;;;40.35;26.48;;;13.90;87.20;;;;;;5042914;28;20036;-75
2023/06/07 01:41:34;;;;;;;35.35;26.85;;;13.90;87.20;;;;;;5033482;28;20040;-76
2023/06/07 01:44:00;;;;;;;41.63;27.90;;;13.90;87.10;;;;;;5042080;28;20362;-75
2023/06/07 01:46:27;;;;;;;40.28;27.13;;;13.90;87.10;;;;;;5034228;28;20504;-77
2023/06/07 01:48:53;;;;;;;38.28;26.88;;;13.80;87.20;;;;;;5041683;28;20811;-77
2023/06/07 01:51:19;;;;;;;37.30;26.08;;;13.80;87.30;;;;;;5031392;28;20566;-76
2023/06/07 01:53:46;;;;;;;38.67;26.50;;;13.80;87.10;;;;;;5044391;28;20029;-76
2023/06/07 01:56:30;;;;;;;36.67;26.33;;;13.80;87.20;;;;;;5039889;28;20037;-77
2023/06/07 01:59:00;;;;;;;41.15;25.73;;;13.80;87.20;;;;;;5035318;28;20060;-77
2023/06/07 02:01:36;;;;;;;37.35;26.65;;;13.80;87.10;;;;;;5040899;28;20464;-76
2023/06/07 02:04:07;;;;;;;37.97;26.63;;;13.80;87.10;;;;;;5040928;28;20469;-77
2023/06/07 02:06:36;;;;;;;37.83;26.17;;;13.80;87.00;;;;;;5036033;28;20055;-76
2023/06/07 02:09:06;;;;;;;34.45;24.40;;;13.70;87.10;;;;;;5032580;28;20059;-77
2023/06/07 02:11:34;;;;;;;36.83;26.67;;;13.70;87.10;;;;;;5038390;28;20036;-76
2023/06/07 02:14:00;;;;;;;40.33;27.05;;;13.70;87.10;;;;;;5039655;28;20495;-76
2023/06/07 02:16:32;;;;;;;35.83;25.45;;;13.70;87.30;;;;;;5034768;28;20037;-77
2023/06/07 02:18:59;;;;;;;39.67;25.48;;;13.60;87.20;;;;;;5038813;28;20107;-77
2023/06/07 02:21:24;;;;;;;39.80;26.55;;;13.60;87.20;;;;;;5034667;28;20037;-76
2023/06/07 02:23:51;;;;;;;40.13;27.13;;;13.60;87.30;;;;;;5037738;28;20029;-76
2023/06/07 02:26:16;;;;;;;36.50;27.00;;;13.60;87.40;;;;;;5042359;28;20049;-76
2023/06/07 02:28:42;;;;;;;40.63;27.20;;;13.50;87.50;;;;;;5044320;28;20371;-75
2023/06/07 02:31:08;;;;;;;41.28;27.70;;;13.50;87.30;;;;;;5040052;28;20389;-75
2023/06/07 02:33:33;;;;;;;43.15;28.25;;;13.50;87.40;;;;;;5037233;28;20444;-76
2023/06/07 02:35:59;;;;;;;42.45;28.77;;;13.40;87.30;;;;;;5030888;28;20021;-76
2023/06/07 02:38:25;;;;;;;38.53;27.33;;;13.40;87.50;;;;;;5036214;28;20025;-76
2023/06/07 02:40:54;;;;;;;40.60;28.10;;;13.40;87.50;;;;;;5039261;28;20160;-76
2023/06/07 02:43:19;;;;;;;43.65;28.25;;;13.40;87.50;;;;;;5038468;28;20049;-76
2023/06/07 02:45:45;;;;;;;48.53;30.88;;;13.40;87.50;;;;;;5040403;28;20124;-76
2023/06/07 02:48:12;;;;;;;48.63;30.48;;;13.30;87.50;;;;;;5042774;28;20124;-76
2023/06/07 02:50:38;;;;;;;41.45;29.83;;;13.30;87.70;;;;;;5046351;28;20017;-75
2023/06/07 02:53:06;;;;;;;43.70;30.48;;;13.30;87.70;;;;;;5043553;28;20263;-76
2023/06/07 02:55:31;;;;;;;45.78;28.98;;;13.30;87.70;;;;;;5037471;28;20032;-76
2023/06/07 02:57:57;;;;;;;42.95;29.50;;;13.30;87.60;;;;;;5040935;28;20025;-76
2023/06/07 03:00:23;;;;;;;45.78;30.30;;;13.20;87.80;;;;;;5034261;28;20068;-76
2023/06/07 03:02:48;;;;;;;47.13;31.38;;;13.20;87.80;;;;;;5037139;28;20033;-76
2023/06/07 03:05:14;;;;;;;45.42;30.80;;;13.10;87.90;;;;;;5045736;28;20032;-76
2023/06/07 03:07:40;;;;;;;47.47;29.52;;;13.10;87.90;;;;;;5044893;28;20465;-76
2023/06/07 03:10:07;;;;;;;44.17;30.73;;;13.10;87.90;;;;;;5038033;28;20025;-77
2023/06/07 03:12:32;;;;;;;46.85;29.98;;;13.20;87.80;;;;;;5039090;28;20071;-76
2023/06/07 03:14:58;;;;;;;45.65;30.05;;;13.10;87.60;;;;;;5033535;28;20100;-75
2023/06/07 03:17:23;;;;;;;46.97;30.52;;;13.10;87.70;;;;;;5042547;28;20033;-77
2023/06/07 03:19:49;;;;;;;46.33;30.08;;;13.10;87.80;;;;;;5041283;28;20822;-76
2023/06/07 03:22:15;;;;;;;45.47;30.95;;;13.10;87.80;;;;;;5043221;28;20429;-76
2023/06/07 03:24:41;;;;;;;47.42;31.90;;;13.10;88.00;;;;;;5037500;28;20536;-76
2023/06/07 03:27:10;;;;;;;40.22;29.02;;;13.10;88.10;;;;;;5033783;28;20554;-76
2023/06/07 03:29:36;;;;;;;41.67;30.73;;;13.10;88.10;;;;;;5040994;28;20028;-76
2023/06/07 03:32:02;;;;;;;46.03;30.67;;;13.00;88.10;;;;;;5042480;28;20462;-76
2023/06/07 03:34:29;;;;;;;48.25;31.77;;;13.10;88.00;;;;;;5036364;28;20029;-76
2023/06/07 03:36:55;;;;;;;44.85;30.00;;;13.00;88.00;;;;;;5036927;28;20044;-76
2023/06/07 03:39:21;;;;;;;45.47;31.17;;;13.00;88.10;;;;;;5038101;28;20079;-75
2023/06/07 03:41:47;;;;;;;46.38;32.13;;;13.00;88.20;;;;;;5039254;28;20373;-77
2023/06/07 03:44:12;;;;;;;50.38;31.52;;;13.00;88.00;;;;;;5040019;28;20021;-77
2023/06/07 03:46:38;;;;;;;45.83;31.55;;;13.00;88.10;;;;;;5040866;28;20036;-75
2023/06/07 03:49:04;;;;;;;42.85;30.95;;;13.00;88.00;;;;;;5043908;28;20145;-76
2023/06/07 03:51:32;;;;;;;46.33;30.85;;;13.00;88.00;;;;;;5029146;28;20120;-76
2023/06/07 03:53:57;;;;;;;47.30;31.30;;;13.00;88.00;;;;;;5043234;28;20044;-76
2023/06/07 03:56:23;;;;;;;44.00;29.90;;;13.00;88.00;;;;;;5038934;28;20159;-76
2023/06/07 03:58:48;;;;;;;43.58;30.25;;;13.00;88.00;;;;;;5030268;28;20029;-76
2023/06/07 04:01:16;;;;;;;43.50;30.15;;;13.00;88.10;;;;;;5040071;28;20036;-77
2023/06/07 04:03:42;;;;;;;41.22;28.75;;;13.00;88.00;;;;;;5043303;28;20024;-76
2023/06/07 04:06:08;;;;;;;43.30;29.77;;;13.00;88.10;;;;;;5040208;28;20045;-76
2023/06/07 04:08:36;;;;;;;42.25;29.02;;;13.00;88.20;;;;;;5042390;28;20762;-77
2023/06/07 04:11:02;;;;;;;45.83;29.70;;;12.90;88.30;;;;;;5040444;28;20021;-77
2023/06/07 04:13:28;;;;;;;43.70;29.30;;;13.00;88.20;;;;;;5043645;28;20051;-77
2023/06/07 04:15:53;;;;;;;42.75;29.33;;;13.00;88.20;;;;;;5034168;28;20041;-77
2023/06/07 04:18:19;;;;;;;44.80;30.58;;;13.00;88.10;;;;;;5038111;28;20480;-77
2023/06/07 04:20:45;;;;;;;39.10;27.83;;;13.00;88.00;;;;;;5038623;28;20025;-77
2023/06/07 04:23:10;;;;;;;43.22;28.83;;;13.10;88.00;;;;;;5043591;28;20120;-76
2023/06/07 04:25:38;;;;;;;40.67;27.38;;;13.10;87.80;;;;;;5037708;28;20104;-76
2023/06/07 04:28:04;;;;;;;35.45;26.02;;;13.10;87.80;;;;;;5038869;28;20172;-76
2023/06/07 04:30:36;;;;;;;40.05;27.88;;;13.10;88.00;;;;;;5041705;28;20076;-77
2023/06/07 04:33:09;;;;;;;43.00;28.23;;;13.10;87.80;;;;;;5042174;28;20033;-75
2023/06/07 04:35:43;;;;;;;38.60;27.33;;;13.10;87.70;;;;;;5042061;28;20537;-76
2023/06/07 04:38:20;;;;;;;37.42;26.42;;;13.30;87.60;;;;;;5036264;28;20029;-76
2023/06/07 04:40:49;;;;;;;39.25;26.40;;;13.30;87.30;;;;;;5033622;28;20112;-77
2023/06/07 04:43:17;;;;;;;38.47;26.95;;;13.50;87.00;;;;;;5033282;28;20104;-76
2023/06/07 04:45:43;;;;;;;40.35;26.75;;;13.50;86.80;;;;;;5036528;28;20477;-76
2023/06/07 04:48:11;;;;;;;34.53;26.20;;;13.60;86.50;;;;;;5032819;28;20043;-76
2023/06/07 04:50:41;;;;;;;39.47;26.58;;;13.60;86.50;;;;;;5039724;28;20314;-77
2023/06/07 04:53:08;;;;;;;35.53;25.55;;;13.60;86.10;;;;;;5034414;28;20055;-75
2023/06/07 04:55:35;;;;;;;35.10;26.00;;;13.60;86.10;;;;;;5037230;28;20033;-76
2023/06/07 04:58:05;;;;;;;36.17;25.83;;;13.60;85.90;;;;;;5039994;28;20047;-78
2023/06/07 05:00:34;;;;;;;40.38;25.65;;;13.70;85.90;;;;;;5036658;28;20021;-77
2023/06/07 05:03:08;;;;;;;35.13;24.88;;;13.80;85.60;;;;;;5034653;28;20029;-77
2023/06/07 05:05:37;;;;;;;40.03;25.63;;;13.80;85.50;;;;;;5034886;28;20461;-78
2023/06/07 05:08:03;;;;;;;37.65;24.08;;;13.90;85.30;;;;;;5034651;28;20469;-77
2023/06/07 05:10:29;;;;;;;37.25;23.80;;;14.00;85.40;;;;;;5031600;28;20458;-78
2023/06/07 05:12:55;;;;;;;33.55;24.55;;;14.00;85.20;;;;;;5038948;28;20060;-78
2023/06/07 05:15:24;;;;;;;35.95;25.02;;;13.90;85.20;;;;;;5039670;28;20058;-78
2023/06/07 05:17:50;;;;;;;36.60;24.98;;;13.90;85.70;;;;;;5036491;28;20555;-78
2023/06/07 05:20:16;;;;;;;37.20;24.52;;;14.00;85.50;;;;;;5034839;28;20025;-77
2023/06/07 05:22:43;;;;;;;34.25;23.33;;;14.10;85.80;;;;;;5036532;28;20103;-75
2023/06/07 05:25:11;;;;;;;36.67;23.92;;;14.40;84.50;;;;;;5035524;28;20107;-78
2023/06/07 05:27:38;;;;;;;31.15;20.40;;;15.10;82.60;;;;;;5030515;28;20390;-76
2023/06/07 05:30:06;;;;;;;32.03;20.58;;;16.00;79.90;;;;;;5039680;28;20024;-76
2023/06/07 05:32:35;;;;;;;29.38;20.15;;;16.20;78.20;;;;;;5034167;28;20393;-76
2023/06/07 05:35:03;;;;;;;28.92;20.08;;;16.60;75.90;;;;;;5032540;28;20036;-76
2023/06/07 05:37:31;;;;;;;29.85;20.45;;;16.70;75.60;;;;;;5035727;28;20037;-77
2023/06/07 05:39:57;;;;;;;29.73;19.67;;;16.90;75.10;;;;;;5038650;28;20081;-79
2023/06/07 05:42:23;;;;;;;32.30;20.00;;;16.50;75.90;;;;;;5039654;28;20135;-77
2023/06/07 05:44:49;;;;;;;29.25;19.52;;;17.10;74.70;;;;;;5039869;28;20021;-76
2023/06/07 05:47:20;;;;;;;32.35;18.80;;;17.10;74.00;;;;;;5037160;28;20060;-77
2023/06/07 05:49:47;;;;;;;26.92;19.45;;;17.10;73.90;;;;;;5036359;28;20092;-77
2023/06/07 05:52:16;;;;;;;26.17;19.95;;;17.10;74.00;;;;;;5034057;28;20029;-77
2023/06/07 05:54:48;;;;;;;26.45;19.25;;;17.10;74.30;;;;;;5030160;28;20099;-77
2023/06/07 05:57:15;;;;;;;30.30;20.17;;;16.40;75.90;;;;;;5031161;28;20581;-77
2023/06/07 05:59:40;;;;;;;30.13;20.65;;;16.20;77.20;;;;;;5038401;28;20039;-78
2023/06/07 06:02:07;;;;;;;31.05;19.95;;;15.70;78.70;;;;;;5040667;28;20045;-76
2023/06/07 06:04:32;;;;;;;32.67;20.98;;;15.90;78.80;;;;;;5045680;28;20032;-76
2023/06/07 06:06:58;;;;;;;28.45;20.35;;;16.00;78.50;;;;;;5043211;28;20041;-76
2023/06/07 06:09:24;;;;;;;26.60;18.92;;;16.10;78.10;;;;;;5042217;28;20033;-77
2023/06/07 06:11:50;;;;;;;28.75;20.05;;;15.80;78.50;;;;;;5040957;28;20079;-75
2023/06/07 06:14:15;;;;;;;26.83;18.92;;;15.70;78.30;;;;;;5041609;28;20049;-76
2023/06/07 06:16:41;;;;;;;29.23;18.20;;;15.50;79.00;;;;;;5039096;28;20128;-77
2023/06/07 06:19:07;;;;;;;27.00;18.85;;;15.50;79.20;;;;;;5041770;28;20117;-78
2023/06/07 06:21:33;;;;;;;27.55;18.52;;;15.50;79.50;;;;;;5037407;28;20060;-78
2023/06/07 06:23:58;;;;;;;27.60;18.83;;;15.50;79.20;;;;;;5035993;28;20021;-78
2023/06/07 06:26:27;;;;;;;30.40;18.35;;;15.40;79.00;;;;;;5035148;28;20479;-78
2023/06/07 06:28:52;;;;;;;28.85;18.48;;;15.50;79.50;;;;;;5036740;28;20452;-78
2023/06/07 06:31:18;;;;;;;28.70;18.40;;;15.50;79.50;;;;;;5037145;28;20043;-78
2023/06/07 06:33:44;;;;;;;25.85;18.73;;;15.40;79.40;;;;;;5038461;28;20029;-79
2023/06/07 06:36:11;;;;;;;26.27;18.48;;;15.70;79.50;;;;;;5035918;28;20040;-78
2023/06/07 06:38:36;;;;;;;27.80;18.73;;;15.90;78.30;;;;;;5036031;28;20030;-79
2023/06/07 06:41:02;;;;;;;29.17;18.95;;;16.00;78.00;;;;;;5031004;28;20029;-79
2023/06/07 06:43:28;;;;;;;28.92;17.80;;;16.20;77.30;;;;;;5042333;28;20488;-79
2023/06/07 06:45:54;;;;;;;26.85;17.52;;;16.40;77.00;;;;;;5040092;28;20051;-79
2023/06/07 06:48:20;;;;;;;25.25;17.67;;;16.10;77.10;;;;;;5044218;28;20021;-78
2023/06/07 06:50:47;;;;;;;29.08;17.30;;;16.10;77.20;;;;;;5043842;28;20483;-80
2023/06/07 06:53:13;;;;;;;27.73;17.95;;;16.40;77.00;;;;;;5033808;28;20033;-79
2023/06/07 06:55:39;;;;;;;26.42;16.30;;;16.60;76.20;;;;;;5042977;28;20078;-81
2023/06/07 06:58:05;;;;;;;22.83;15.93;;;16.90;75.40;;;;;;5036535;28;20033;-79
2023/06/07 07:00:35;;;;;;;23.77;14.93;;;17.30;73.90;;;;;;5038266;28;20036;-78
2023/06/07 07:03:01;;;;;;;32.75;16.52;;;17.60;72.90;;;;;;5037670;28;20041;-79
2023/06/07 07:05:27;;;;;;;22.40;15.05;;;17.40;72.60;;;;;;5042440;28;20104;-79
2023/06/07 07:07:53;;;;;;;22.42;16.05;;;17.40;72.70;;;;;;5044059;28;20112;-79
2023/06/07 07:10:19;;;;;;;25.35;15.93;;;17.10;72.60;;;;;;5035452;28;20087;-78
2023/06/07 07:12:44;;;;;;;24.10;14.88;;;17.40;72.30;;;;;;5034292;28;20127;-79
2023/06/07 07:15:10;;;;;;;25.15;15.55;;;17.50;71.70;;;;;;5036807;28;20038;-78
2023/06/07 07:17:47;;;;;;;24.27;14.60;;;17.50;71.50;;;;;;5043896;28;20033;-79
2023/06/07 07:20:14;;;;;;;26.02;15.55;;;17.70;71.20;;;;;;5040392;28;20100;-80
2023/06/07 07:22:41;;;;;;;23.15;14.32;;;17.90;70.20;;;;;;5044592;28;20033;-79
2023/06/07 07:25:07;;;;;;;26.45;15.65;;;18.00;69.80;;;;;;5039407;28;20266;-79
2023/06/07 07:27:33;;;;;;;24.38;16.20;;;18.00;69.80;;;;;;5041645;28;20048;-79
2023/06/07 07:30:00;;;;;;;24.30;16.15;;;18.10;69.30;;;;;;5033020;28;20037;-79
2023/06/07 07:32:25;;;;;;;24.13;16.05;;;17.90;69.80;;;;;;5036498;28;20036;-78
2023/06/07 07:34:51;;;;;;;26.05;15.48;;;17.80;70.40;;;;;;5039507;28;20487;-78
2023/06/07 07:37:17;;;;;;;24.70;15.98;;;17.80;69.30;;;;;;5041488;28;20128;-79
2023/06/07 07:39:42;;;;;;;21.58;14.27;;;17.70;70.70;;;;;;5042246;28;20096;-77
2023/06/07 07:42:08;;;;;;;27.17;15.30;;;18.00;70.00;;;;;;5036323;28;20124;-77
2023/06/07 07:44:34;;;;;;;27.92;14.20;;;17.60;70.00;;;;;;5041174;28;20096;-77
2023/06/07 07:47:00;;;;;;;23.55;14.85;;;17.70;70.70;;;;;;5041354;28;20047;-78
2023/06/07 07:49:26;;;;;;;25.35;15.00;;;17.60;71.10;;;;;;5039557;28;20082;-76
2023/06/07 07:51:51;;;;;;;23.30;14.38;;;17.80;70.80;;;;;;5035298;28;20056;-75
2023/06/07 07:54:17;;;;;;;22.20;13.82;;;18.10;69.90;;;;;;5039853;28;20022;-75
2023/06/07 07:56:43;;;;;;;21.45;13.90;;;18.20;69.70;;;;;;5039902;28;20110;-75
2023/06/07 07:59:09;;;;;;;22.20;13.88;;;18.40;70.30;;;;;;5035655;28;20525;-77
2023/06/07 08:01:35;;;;;;;23.75;14.93;;;18.60;68.90;;;;;;5041432;28;20103;-76
2023/06/07 08:04:01;;;;;;;24.55;14.98;;;18.10;68.20;;;;;;5031143;28;20734;-77
2023/06/07 08:06:27;;;;;;;20.27;13.95;;;18.00;69.40;;;;;;5036715;28;20073;-79
2023/06/07 08:08:54;;;;;;;20.63;14.05;;;17.90;70.40;;;;;;5036511;28;20056;-78
2023/06/07 08:11:21;;;;;;;23.00;14.90;;;18.10;69.70;;;;;;5035191;28;20041;-79
2023/06/07 08:13:46;;;;;;;20.52;14.43;;;18.10;69.50;;;;;;5036958;28;20040;-79
2023/06/07 08:16:12;;;;;;;23.70;14.02;;;17.70;71.00;;;;;;5038689;28;20041;-78
2023/06/07 08:18:38;;;;;;;19.75;14.05;;;17.80;70.60;;;;;;5042018;28;20533;-80
2023/06/07 08:21:04;;;;;;;22.30;13.98;;;17.80;70.60;;;;;;5036312;28;20021;-80
2023/06/07 08:23:30;;;;;;;25.33;14.15;;;17.90;71.00;;;;;;5039178;28;20038;-78
2023/06/07 08:25:57;;;;;;;19.23;13.35;;;18.10;70.90;;;;;;5039365;28;20111;-80
2023/06/07 08:28:25;;;;;;;20.52;13.05;;;18.30;69.90;;;;;;5036773;28;20490;-79
2023/06/07 08:30:51;;;;;;;22.63;13.55;;;18.60;69.30;;;;;;5034700;28;20033;-81
2023/06/07 08:33:17;;;;;;;23.58;13.35;;;18.60;69.80;;;;;;5030943;28;20037;-76
2023/06/07 08:35:42;;;;;;;27.20;14.63;;;18.70;68.50;;;;;;5039689;28;20041;-78
2023/06/07 08:38:08;;;;;;;20.98;13.82;;;18.60;68.30;;;;;;5036409;28;20037;-78
2023/06/07 08:40:36;;;;;;;19.33;13.50;;;19.00;67.90;;;;;;5037823;28;20029;-76
2023/06/07 08:43:02;;;;;;;24.67;14.40;;;19.10;68.00;;;;;;5038417;28;20045;-79
2023/06/07 08:45:28;;;;;;;21.15;14.63;;;19.60;66.30;;;;;;5042374;28;20336;-79
2023/06/07 08:47:56;;;;;;;21.50;13.65;;;20.10;65.30;;;;;;5045644;28;20470;-79
2023/06/07 08:50:23;;;;;;;22.88;13.65;;;19.90;65.60;;;;;;5040274;28;20053;-79
2023/06/07 08:52:53;;;;;;;20.75;14.02;;;19.90;64.70;;;;;;5039098;28;20030;-78
2023/06/07 08:55:19;;;;;;;21.02;14.07;;;19.80;65.70;;;;;;5036991;28;20052;-76
2023/06/07 08:57:52;;;;;;;21.73;13.82;;;19.90;64.50;;;;;;5031281;28;20128;-79
2023/06/07 09:00:22;;;;;;;20.73;14.52;;;19.80;63.80;;;;;;5031983;28;20025;-76
2023/06/07 09:02:51;;;;;;;24.73;14.95;;;19.80;63.80;;;;;;5035361;28;20029;-76
2023/06/07 09:05:17;;;;;;;25.63;13.70;;;19.90;63.60;;;;;;5034809;28;20070;-77
2023/06/07 09:07:43;;;;;;;23.17;13.13;;;20.20;63.00;;;;;;5038977;28;20377;-80
2023/06/07 09:10:09;;;;;;;21.85;13.43;;;20.10;64.10;;;;;;5035821;28;20021;-75
2023/06/07 09:12:35;;;;;;;19.42;13.00;;;20.50;63.20;;;;;;5038988;28;20045;-74
2023/06/07 09:15:01;;;;;;;23.10;13.00;;;20.60;62.20;;;;;;5035401;28;20172;-74
2023/06/07 09:17:58;;;;;;;22.23;13.25;;;20.40;62.30;;;;;;5033355;28;20060;-74
2023/06/07 09:20:28;;;;;;;20.30;12.50;;;20.70;61.70;;;;;;5036329;28;20026;-74
2023/06/07 09:23:14;;;;;;;23.30;11.93;;;20.80;61.40;;;;;;5033326;28;20104;-74
2023/06/07 09:25:46;;;;;;;18.90;12.35;;;21.00;61.70;;;;;;5035077;28;20041;-74
2023/06/07 09:28:14;;;;;;;25.23;13.60;;;20.90;61.30;;;;;;5038270;28;20599;-75
2023/06/07 09:30:55;;;;;;;19.55;13.27;;;20.90;61.60;;;;;;5036784;28;20016;-75
2023/06/07 09:33:34;;;;;;;26.10;14.35;;;21.20;60.80;;;;;;5036156;28;20627;-75
2023/06/07 09:36:03;;;;;;;22.55;12.88;;;21.10;60.80;;;;;;5037137;28;20033;-74
2023/06/07 09:38:29;;;;;;;23.40;13.00;;;21.40;60.50;;;;;;5039545;28;20034;-76
2023/06/07 09:41:00;;;;;;;20.60;11.60;;;21.30;60.70;;;;;;5035394;28;20699;-73
2023/06/07 09:43:26;;;;;;;21.17;12.60;;;21.60;60.60;;;;;;5041348;28;20017;-75
2023/06/07 09:45:56;;;;;;;21.30;12.35;;;22.00;60.10;;;;;;5033220;28;20068;-76
2023/06/07 09:48:22;;;;;;;20.45;12.68;;;22.10;59.00;;;;;;5038528;28;20375;-76
2023/06/07 09:50:58;;;;;;;17.08;11.55;;;22.00;59.60;;;;;;5031763;28;20032;-74
2023/06/07 09:53:24;;;;;;;21.73;13.13;;;22.10;58.50;;;;;;5038727;28;20056;-76
2023/06/07 09:55:50;;;;;;;20.23;12.80;;;22.30;58.30;;;;;;5035130;28;20045;-75
2023/06/07 09:58:24;;;;;;;18.98;12.32;;;22.50;57.30;;;;;;5035425;28;20109;-76
2023/06/07 10:00:52;;;;;;;20.98;12.73;;;22.30;57.30;;;;;;5035525;28;20472;-81
2023/06/07 10:03:18;;;;;;;18.90;12.45;;;22.30;58.80;;;;;;5036555;28;20021;-78
2023/06/07 10:05:44;;;;;;;19.13;12.48;;;22.60;57.90;;;;;;5040254;28;20045;-76
2023/06/07 10:08:10;;;;;;;18.80;11.80;;;22.70;56.50;;;;;;5041084;28;20428;-76
2023/06/07 10:10:40;;;;;;;21.10;12.73;;;22.80;57.90;;;;;;5039618;28;20764;-79
2023/06/07 10:13:10;;;;;;;19.77;12.38;;;23.20;55.00;;;;;;5036186;28;20127;-79
2023/06/07 10:15:44;;;;;;;19.85;12.63;;;23.10;55.00;;;;;;5040256;28;20044;-79
2023/06/07 10:18:17;;;;;;;23.08;13.00;;;22.80;56.10;;;;;;5038901;28;20114;-78
2023/06/07 10:21:25;;;;;;;21.38;13.48;;;22.60;56.20;;;;;;5039196;28;20100;-77
2023/06/07 10:23:55;;;;;;;19.77;12.35;;;22.60;56.00;;;;;;5023399;28;20076;-76
2023/06/07 10:26:25;;;;;;;22.40;13.68;;;23.00;56.00;;;;;;5022442;28;20105;-76
2023/06/07 10:29:07;;;;;;;23.20;13.57;;;23.00;56.60;;;;;;5039406;28;20132;-77
2023/06/07 10:31:40;;;;;;;17.63;12.93;;;22.80;55.00;;;;;;5034514;28;20047;-79
2023/06/07 10:34:09;;;;;;;19.77;13.85;;;22.60;56.50;;;;;;5040218;28;20123;-78
2023/06/07 10:36:38;;;;;;;19.90;13.02;;;22.80;56.00;;;;;;5040691;28;20049;-78
2023/06/07 10:39:06;;;;;;;21.83;14.77;;;22.60;56.50;;;;;;5036846;28;20068;-79
2023/06/07 10:41:36;;;;;;;18.15;13.70;;;23.00;55.70;;;;;;5027396;28;20662;-77
2023/06/07 10:44:02;;;;;;;20.17;13.00;;;23.40;54.00;;;;;;5028208;28;20033;-77
2023/06/07 10:46:28;;;;;;;17.30;13.52;;;23.20;54.80;;;;;;5023056;28;20045;-79
2023/06/07 10:48:56;;;;;;;19.85;12.98;;;23.30;54.90;;;;;;5032265;28;20056;-75
2023/06/07 10:51:58;;;;;;;19.17;13.13;;;23.50;54.00;;;;;;5031557;28;20142;-76
2023/06/07 10:54:35;;;;;;;20.00;13.38;;;23.40;55.10;;;;;;5028738;28;20425;-78
2023/06/07 10:57:04;;;;;;;16.95;11.90;;;23.50;55.00;;;;;;5031059;28;20030;-79
2023/06/07 10:59:30;;;;;;;21.00;13.40;;;23.80;54.80;;;;;;5032577;28;20029;-75
2023/06/07 11:02:19;;;;;;;20.60;13.25;;;24.10;54.00;;;;;;5030407;28;20044;-78
2023/06/07 11:04:59;;;;;;;20.08;13.82;;;24.10;53.60;;;;;;5028380;28;20044;-79
2023/06/07 11:07:37;;;;;;;19.13;13.38;;;24.10;53.60;;;;;;5030028;28;20033;-77
2023/06/07 11:10:06;;;;;;;20.63;12.85;;;24.20;53.80;;;;;;5029927;28;20039;-76
2023/06/07 11:12:35;;;;;;;20.52;13.30;;;24.20;54.20;;;;;;5026165;28;20522;-75
2023/06/07 11:15:25;;;;;;;20.27;12.90;;;24.20;52.40;;;;;;5029883;28;20610;-77
2023/06/07 11:17:56;;;;;;;20.38;14.23;;;23.70;53.50;;;;;;5027729;28;20514;-76
2023/06/07 11:20:43;;;;;;;17.27;13.25;;;24.00;53.50;;;;;;5029864;28;20115;-78
2023/06/07 11:23:28;;;;;;;18.60;12.48;;;24.20;53.60;;;;;;5032404;28;20049;-77
2023/06/07 11:26:06;;;;;;;19.83;12.95;;;24.40;52.80;;;;;;5030895;28;20067;-78
2023/06/07 11:28:32;;;;;;;19.90;13.13;;;24.20;52.00;;;;;;5028541;28;20486;-76
2023/06/07 11:31:00;;;;;;;26.80;14.65;;;24.10;53.10;;;;;;5029291;28;20033;-77
2023/06/07 11:33:27;;;;;;;21.00;13.70;;;24.50;53.40;;;;;;5030243;28;20394;-78
2023/06/07 11:35:53;;;;;;;21.52;14.10;;;24.80;51.80;;;;;;5042870;28;20037;-76
2023/06/07 11:38:23;;;;;;;18.88;13.38;;;24.90;52.20;;;;;;5042530;28;20493;-76
2023/06/07 11:40:49;;;;;;;21.52;14.90;;;24.70;51.50;;;;;;5031149;28;20824;-76
2023/06/07 11:43:19;;;;;;;20.38;13.32;;;25.00;50.40;;;;;;5041182;28;20100;-75
2023/06/07 11:45:45;;;;;;;22.42;14.30;;;24.90;52.10;;;;;;5041068;28;20087;-75
2023/06/07 11:48:11;;;;;;;22.83;14.98;;;24.60;51.50;;;;;;5036010;28;20041;-76
2023/06/07 11:50:39;;;;;;;20.70;13.25;;;24.30;51.70;;;;;;5040688;28;20064;-77
2023/06/07 11:53:08;;;;;;;22.85;13.65;;;24.50;52.00;;;;;;5030948;28;20087;-78
2023/06/07 11:55:34;;;;;;;18.55;12.25;;;24.30;51.70;;;;;;5039518;28;20029;-78
2023/06/07 11:58:04;;;;;;;16.27;11.70;;;24.40;50.20;;;;;;5042686;28;20683;-78
2023/06/07 12:00:31;;;;;;;21.15;12.60;;;24.60;51.10;;;;;;5041806;28;20031;-78
2023/06/07 12:03:01;;;;;;;24.15;13.80;;;24.70;51.30;;;;;;5030672;28;20040;-84
2023/06/07 12:05:30;;;;;;;21.08;13.23;;;24.50;51.70;;;;;;5037129;28;20080;-78
2023/06/07 12:08:04;;;;;;;20.70;12.50;;;24.40;52.30;;;;;;5041786;28;20393;-81
2023/06/07 12:10:36;;;;;;;20.38;13.20;;;24.70;51.80;;;;;;5031992;28;20040;-77
2023/06/07 12:13:18;;;;;;;21.90;13.25;;;24.80;51.60;;;;;;5027605;28;20049;-77
2023/06/07 12:15:48;;;;;;;22.25;13.75;;;25.00;51.60;;;;;;5028140;28;20444;-78
2023/06/07 12:18:27;;;;;;;19.70;12.32;;;25.50;50.70;;;;;;5032785;28;20048;-79
2023/06/07 12:21:18;;;;;;;21.40;13.07;;;25.40;49.90;;;;;;5041544;28;20029;-79
2023/06/07 12:23:52;;;;;;;20.43;12.17;;;25.30;49.90;;;;;;5036823;28;20503;-81
2023/06/07 12:26:28;;;;;;;19.83;12.65;;;25.60;50.30;;;;;;5040538;28;20550;-80
2023/06/07 12:28:54;;;;;;;19.67;12.85;;;25.60;49.80;;;;;;5040828;28;20060;-78
2023/06/07 12:31:26;;;;;;;16.30;10.52;;;25.60;49.40;;;;;;5036894;28;20048;-79
2023/06/07 12:33:55;;;;;;;19.48;12.40;;;25.40;47.10;;;;;;5031675;28;20045;-79